Perseverance — WDJ3835 — position and weather

sailwx.info

Track history (hours):
 
Tides and Currents Weather Stations Pressure Air Temp Water Temp Dewpoint Dewpoint Depression Visibility Wind Speed Wind Dir Waves Ship Positions

Perseverance

Owner: Kuony, John C, Pleasanton, CA. More information available from US FCC via Universal Licensing System and Coast Guard Vessel Documentation Center.

Last reported at 2018-Jun-15 13:39 UTC. Time now 2018-Jun-21 11:49 UTC.
Position N 32°07' W 080°50'.

Length 15 m.

Type: Pleasure craft. MMSI: 367666650.

Date/timePositionNaut miles runAvg speedWind from/ knotsBaromVisibWave heightAir tempDewpointWater temp
2018-Jun-15 13:39N 32°07' W 080°50'2 8.6
2018-Jun-15 13:25N 32°05' W 080°50'4 7.8
2018-Jun-15 12:57N 32°01' W 080°48'346 8.1
2018-Jun-13 18:23N 26°18' W 079°57'3 8.5
2018-Jun-13 18:00N 26°15' W 079°58'4 8.3
2018-Jun-13 17:29N 26°10' W 079°59'3 6.0
2018-Jun-13 16:59N 26°08' W 080°01'4 7.2
2018-Jun-13 16:30N 26°07' W 080°04'3 5.3
2018-Jun-13 16:00N 26°06' W 080°07'0 0.1
2018-Jun-13 14:32N 26°06' W 080°07'0 0.0
2018-Jun-13 14:29N 26°06' W 080°07'0 0.0
2018-Jun-13 13:44N 26°06' W 080°07'0 0.0
2018-Jun-13 13:29N 26°06' W 080°07'0 0.0
2018-Jun-13 12:59N 26°06' W 080°07'0 0.0
2018-Jun-13 12:14N 26°06' W 080°07'0 0.0
2018-Jun-13 11:59N 26°06' W 080°07'0 0.0
2018-Jun-13 11:20N 26°06' W 080°07'0 0.0
2018-Jun-13 10:50N 26°06' W 080°07'0 0.0
2018-Jun-13 10:23N 26°06' W 080°07'0 0.0
2018-Jun-13 09:53N 26°06' W 080°07'0 0.0
2018-Jun-13 09:23N 26°06' W 080°07'0 0.0
2018-Jun-13 08:53N 26°06' W 080°07'0 0.0
2018-Jun-13 08:20N 26°06' W 080°07'0 0.0
2018-Jun-13 07:53N 26°06' W 080°07'0 0.0
2018-Jun-13 07:20N 26°06' W 080°07'0 0.0
2018-Jun-13 06:56N 26°06' W 080°07'0 0.0
2018-Jun-13 06:26N 26°06' W 080°07'0 0.0
2018-Jun-13 05:56N 26°06' W 080°07'0 0.0
2018-Jun-13 05:26N 26°06' W 080°07'0 0.0
2018-Jun-13 04:53N 26°06' W 080°07'0 0.0
2018-Jun-13 04:29N 26°06' W 080°07'0 0.0
2018-Jun-13 03:56N 26°06' W 080°07'0 0.0
2018-Jun-13 03:26N 26°06' W 080°07'0 0.0
2018-Jun-13 02:59N 26°06' W 080°07'0 0.0
2018-Jun-13 02:29N 26°06' W 080°07'0 0.0
2018-Jun-13 01:59N 26°06' W 080°07'0 0.0
2018-Jun-13 01:29N 26°06' W 080°07'0 0.0
2018-Jun-13 00:59N 26°06' W 080°07'0 0.0
2018-Jun-13 00:29N 26°06' W 080°07'0 0.0
2018-Jun-12 23:59N 26°06' W 080°07'0 0.0
2018-Jun-12 23:29N 26°06' W 080°07'0 0.0
2018-Jun-12 22:59N 26°06' W 080°07'0 0.0
2018-Jun-12 22:20N 26°06' W 080°07'0 0.0
2018-Jun-12 21:59N 26°06' W 080°07'0 0.0
2018-Jun-12 21:20N 26°06' W 080°07'0 0.0
2018-Jun-12 20:50N 26°06' W 080°07'0 0.0
2018-Jun-12 20:17N 26°06' W 080°07'0 0.0
2018-Jun-12 19:53N 26°06' W 080°07'0 0.0
2018-Jun-12 19:20N 26°06' W 080°07'0 0.0
2018-Jun-12 18:53N 26°06' W 080°07'0 0.0
2018-Jun-12 18:20N 26°06' W 080°07'0 0.0
2018-Jun-12 17:53N 26°06' W 080°07'0 0.0
2018-Jun-12 17:26N 26°06' W 080°07'0 0.0
2018-Jun-12 16:56N 26°06' W 080°07'0 0.0
2018-Jun-12 16:26N 26°06' W 080°07'0 0.0
2018-Jun-12 15:56N 26°06' W 080°07'0 0.0
2018-Jun-12 15:26N 26°06' W 080°07'0 0.0
2018-Jun-12 14:59N 26°06' W 080°07'0 0.0
2018-Jun-12 14:29N 26°06' W 080°07'0 0.0
2018-Jun-12 13:59N 26°06' W 080°07'0 0.0
2018-Jun-12 13:29N 26°06' W 080°07'0 0.0
2018-Jun-12 12:59N 26°06' W 080°07'0 0.0
2018-Jun-12 12:29N 26°06' W 080°07'0 0.0
2018-Jun-12 11:44N 26°06' W 080°07'0 0.0
2018-Jun-12 11:29N 26°06' W 080°07'0 0.0
2018-Jun-12 10:56N 26°06' W 080°07'0 0.0
2018-Jun-12 10:29N 26°06' W 080°07'0 0.0
2018-Jun-12 09:59N 26°06' W 080°07'0 0.0
2018-Jun-12 09:14N 26°06' W 080°07'0 0.0
2018-Jun-12 08:59N 26°06' W 080°07'0 0.0
2018-Jun-12 08:05N 26°06' W 080°07'0 0.0
2018-Jun-12 07:59N 26°06' W 080°07'0 0.0
2018-Jun-12 07:20N 26°06' W 080°07'0 0.0
2018-Jun-12 06:50N 26°06' W 080°07'0 0.0
2018-Jun-12 06:20N 26°06' W 080°07'0 0.0
2018-Jun-12 05:47N 26°06' W 080°07'0 0.0
2018-Jun-12 05:20N 26°06' W 080°07'0 0.0
2018-Jun-12 04:53N 26°06' W 080°07'0 0.0
2018-Jun-12 04:23N 26°06' W 080°07'0 0.0
2018-Jun-12 03:53N 26°06' W 080°07'0 0.0
2018-Jun-12 03:20N 26°06' W 080°07'0 0.0
2018-Jun-12 02:53N 26°06' W 080°07'0 0.0
2018-Jun-12 02:26N 26°06' W 080°07'0 0.0
2018-Jun-12 01:56N 26°06' W 080°07'0 0.0
2018-Jun-12 01:26N 26°06' W 080°07'0 0.0
2018-Jun-12 00:53N 26°06' W 080°07'0 0.0
2018-Jun-12 00:26N 26°06' W 080°07'0 0.0
2018-Jun-11 23:56N 26°06' W 080°07'0 0.0
2018-Jun-11 23:26N 26°06' W 080°07'0 0.0
2018-Jun-11 22:59N 26°06' W 080°07'0 0.0
2018-Jun-11 22:26N 26°06' W 080°07'0 0.0
2018-Jun-11 21:44N 26°06' W 080°07'0 0.0
2018-Jun-11 21:29N 26°06' W 080°07'0 0.0
2018-Jun-11 20:56N 26°06' W 080°07'0 0.0
2018-Jun-11 20:29N 26°06' W 080°07'0 0.0
2018-Jun-11 18:23N 26°06' W 080°07'0 0.0
2018-Jun-11 17:54N 26°06' W 080°07'0 0.0
2018-Jun-11 17:05N 26°06' W 080°07'0 0.0
2018-Jun-11 16:53N 26°06' W 080°07'0 0.0
2018-Jun-11 16:23N 26°06' W 080°07'0 0.0
2018-Jun-11 15:54N 26°06' W 080°07'0 0.0
2018-Jun-11 15:24N 26°06' W 080°07'0 0.0
2018-Jun-11 14:12N 26°06' W 080°07'0 0.0
2018-Jun-11 13:53N 26°06' W 080°07'0 0.0
2018-Jun-11 13:30N 26°06' W 080°07'0 0.0
2018-Jun-11 09:18N 26°06' W 080°07'0 0.0
2018-Jun-11 09:00N 26°06' W 080°07'0 0.0
2018-Jun-11 08:30N 26°06' W 080°07'0 0.0
2018-Jun-11 07:59N 26°06' W 080°07'0 0.0
2018-Jun-11 07:29N 26°06' W 080°07'0 0.0
2018-Jun-11 06:47N 26°06' W 080°07'0 0.0
2018-Jun-11 06:05N 26°06' W 080°07'0 0.0
2018-Jun-11 04:54N 26°06' W 080°07'0 0.0
2018-Jun-11 04:23N 26°06' W 080°07'0 0.0
2018-Jun-11 03:54N 26°06' W 080°07'0 0.0
2018-Jun-11 03:12N 26°06' W 080°07'0 0.0
2018-Jun-11 02:42N 26°06' W 080°07'0 0.0
2018-Jun-11 02:23N 26°06' W 080°07'0 0.0
2018-Jun-11 01:42N 26°06' W 080°07'0 0.0
2018-Jun-11 01:24N 26°06' W 080°07'0 0.0
2018-Jun-11 00:56N 26°06' W 080°07'0 0.0
2018-Jun-11 00:27N 26°06' W 080°07'0 0.0
2018-Jun-10 23:57N 26°06' W 080°07'0 0.0
2018-Jun-10 23:30N 26°06' W 080°07'0 0.0
2018-Jun-10 23:00N 26°06' W 080°07'0 0.0
2018-Jun-10 22:27N 26°06' W 080°07'0 0.0
2018-Jun-10 21:44N 26°06' W 080°07'0 0.0
2018-Jun-10 21:30N 26°06' W 080°07'0 0.0
2018-Jun-10 20:59N 26°06' W 080°07'0 0.0
2018-Jun-10 20:30N 26°06' W 080°07'0 0.0
2018-Jun-10 20:00N 26°06' W 080°07'0 0.0
2018-Jun-10 19:30N 26°06' W 080°07'0 0.0
2018-Jun-10 19:00N 26°06' W 080°07'0 0.0
2018-Jun-10 18:21N 26°06' W 080°07'0 0.0
2018-Jun-10 18:00N 26°06' W 080°07'0 0.0
2018-Jun-10 17:21N 26°06' W 080°07'0 0.0
2018-Jun-10 16:54N 26°06' W 080°07'0 0.0
2018-Jun-10 16:21N 26°06' W 080°07'0 0.0
2018-Jun-10 15:54N 26°06' W 080°07'0 0.0
2018-Jun-10 15:24N 26°06' W 080°07'0 0.0
2018-Jun-10 14:54N 26°06' W 080°07'0 0.0
2018-Jun-10 12:26N 26°06' W 080°07'0 0.0
2018-Jun-10 11:57N 26°06' W 080°07'0 0.0
2018-Jun-10 11:27N 26°06' W 080°07'0 0.0
2018-Jun-10 10:56N 26°06' W 080°07'0 0.0
2018-Jun-10 10:23N 26°06' W 080°07'0 0.0
2018-Jun-10 09:45N 26°06' W 080°07'0 0.0
2018-Jun-10 08:15N 26°06' W 080°07'0 0.0
2018-Jun-10 07:57N 26°06' W 080°07'0 0.0
2018-Jun-10 07:15N 26°06' W 080°07'0 0.0
2018-Jun-10 06:56N 26°06' W 080°07'0 0.0
2018-Jun-10 06:30N 26°06' W 080°07'0 0.0
2018-Jun-10 05:44N 26°06' W 080°07'0 0.0
2018-Jun-10 05:15N 26°06' W 080°07'0 0.0
2018-Jun-10 05:00N 26°06' W 080°07'0 0.0
2018-Jun-10 04:20N 26°06' W 080°07'0 0.0
2018-Jun-10 03:21N 26°06' W 080°07'0 0.0
2018-Jun-10 02:50N 26°06' W 080°07'0 0.0
2018-Jun-10 02:08N 26°06' W 080°07'0 0.0
2018-Jun-10 01:51N 26°06' W 080°07'0 0.0
2018-Jun-10 01:21N 26°06' W 080°07'0 0.0
2018-Jun-10 00:54N 26°06' W 080°07'0 0.0
2018-Jun-09 23:34N 26°06' W 080°07'0 3.2
2018-Jun-09 23:29N 26°06' W 080°07'3 5.6
2018-Jun-09 22:52N 26°10' W 080°06'2 4.3
2018-Jun-09 22:23N 26°12' W 080°06'3 3.3
2018-Jun-09 21:36N 26°14' W 080°06'0 0.4
2018-Jun-09 21:23N 26°14' W 080°06'0 0.1
2018-Jun-09 20:38N 26°14' W 080°06'0 2.7
2018-Jun-09 20:27N 26°14' W 080°06'2 4.0
2018-Jun-09 19:51N 26°11' W 080°06'1 3.2
2018-Jun-09 19:30N 26°10' W 080°06'2 3.6
2018-Jun-09 18:54N 26°08' W 080°07'  
Track history (hours):
 
Tides and Currents Weather Stations Pressure Air Temp Water Temp Dewpoint Dewpoint Depression Visibility Wind Speed Wind Dir Waves Ship Positions

Perseverance

Owner: Kuony, John C, Pleasanton, CA. More information available from US FCC via Universal Licensing System and Coast Guard Vessel Documentation Center.

Last reported at 2018-Jun-15 13:39 UTC. Time now 2018-Jun-21 11:49 UTC.
Position N 32°07' W 080°50'.

Length 15 m.

Type: Pleasure craft. MMSI: 367666650.

Date/timePositionNaut miles runAvg speedWind from/ knotsBaromVisibWave heightAir tempDewpointWater temp
2018-Jun-15 13:39N 32°07' W 080°50'2 8.6
2018-Jun-15 13:25N 32°05' W 080°50'4 7.8
2018-Jun-15 12:57N 32°01' W 080°48'346 8.1
2018-Jun-13 18:23N 26°18' W 079°57'3 8.5
2018-Jun-13 18:00N 26°15' W 079°58'4 8.3
2018-Jun-13 17:29N 26°10' W 079°59'3 6.0
2018-Jun-13 16:59N 26°08' W 080°01'4 7.2
2018-Jun-13 16:30N 26°07' W 080°04'3 5.3
2018-Jun-13 16:00N 26°06' W 080°07'0 0.1
2018-Jun-13 14:32N 26°06' W 080°07'0 0.0
2018-Jun-13 14:29N 26°06' W 080°07'0 0.0
2018-Jun-13 13:44N 26°06' W 080°07'0 0.0
2018-Jun-13 13:29N 26°06' W 080°07'0 0.0
2018-Jun-13 12:59N 26°06' W 080°07'0 0.0
2018-Jun-13 12:14N 26°06' W 080°07'0 0.0
2018-Jun-13 11:59N 26°06' W 080°07'0 0.0
2018-Jun-13 11:20N 26°06' W 080°07'0 0.0
2018-Jun-13 10:50N 26°06' W 080°07'0 0.0
2018-Jun-13 10:23N 26°06' W 080°07'0 0.0
2018-Jun-13 09:53N 26°06' W 080°07'0 0.0
2018-Jun-13 09:23N 26°06' W 080°07'0 0.0
2018-Jun-13 08:53N 26°06' W 080°07'0 0.0
2018-Jun-13 08:20N 26°06' W 080°07'0 0.0
2018-Jun-13 07:53N 26°06' W 080°07'0 0.0
2018-Jun-13 07:20N 26°06' W 080°07'0 0.0
2018-Jun-13 06:56N 26°06' W 080°07'0 0.0
2018-Jun-13 06:26N 26°06' W 080°07'0 0.0
2018-Jun-13 05:56N 26°06' W 080°07'0 0.0
2018-Jun-13 05:26N 26°06' W 080°07'0 0.0
2018-Jun-13 04:53N 26°06' W 080°07'0 0.0
2018-Jun-13 04:29N 26°06' W 080°07'0 0.0
2018-Jun-13 03:56N 26°06' W 080°07'0 0.0
2018-Jun-13 03:26N 26°06' W 080°07'0 0.0
2018-Jun-13 02:59N 26°06' W 080°07'0 0.0
2018-Jun-13 02:29N 26°06' W 080°07'0 0.0
2018-Jun-13 01:59N 26°06' W 080°07'0 0.0
2018-Jun-13 01:29N 26°06' W 080°07'0 0.0
2018-Jun-13 00:59N 26°06' W 080°07'0 0.0
2018-Jun-13 00:29N 26°06' W 080°07'0 0.0
2018-Jun-12 23:59N 26°06' W 080°07'0 0.0
2018-Jun-12 23:29N 26°06' W 080°07'0 0.0
2018-Jun-12 22:59N 26°06' W 080°07'0 0.0
2018-Jun-12 22:20N 26°06' W 080°07'0 0.0
2018-Jun-12 21:59N 26°06' W 080°07'0 0.0
2018-Jun-12 21:20N 26°06' W 080°07'0 0.0
2018-Jun-12 20:50N 26°06' W 080°07'0 0.0
2018-Jun-12 20:17N 26°06' W 080°07'0 0.0
2018-Jun-12 19:53N 26°06' W 080°07'0 0.0
2018-Jun-12 19:20N 26°06' W 080°07'0 0.0
2018-Jun-12 18:53N 26°06' W 080°07'0 0.0
2018-Jun-12 18:20N 26°06' W 080°07'0 0.0
2018-Jun-12 17:53N 26°06' W 080°07'0 0.0
2018-Jun-12 17:26N 26°06' W 080°07'0 0.0
2018-Jun-12 16:56N 26°06' W 080°07'0 0.0
2018-Jun-12 16:26N 26°06' W 080°07'0 0.0
2018-Jun-12 15:56N 26°06' W 080°07'0 0.0
2018-Jun-12 15:26N 26°06' W 080°07'0 0.0
2018-Jun-12 14:59N 26°06' W 080°07'0 0.0
2018-Jun-12 14:29N 26°06' W 080°07'0 0.0
2018-Jun-12 13:59N 26°06' W 080°07'0 0.0
2018-Jun-12 13:29N 26°06' W 080°07'0 0.0
2018-Jun-12 12:59N 26°06' W 080°07'0 0.0
2018-Jun-12 12:29N 26°06' W 080°07'0 0.0
2018-Jun-12 11:44N 26°06' W 080°07'0 0.0
2018-Jun-12 11:29N 26°06' W 080°07'0 0.0
2018-Jun-12 10:56N 26°06' W 080°07'0 0.0
2018-Jun-12 10:29N 26°06' W 080°07'0 0.0
2018-Jun-12 09:59N 26°06' W 080°07'0 0.0
2018-Jun-12 09:14N 26°06' W 080°07'0 0.0
2018-Jun-12 08:59N 26°06' W 080°07'0 0.0
2018-Jun-12 08:05N 26°06' W 080°07'0 0.0
2018-Jun-12 07:59N 26°06' W 080°07'0 0.0
2018-Jun-12 07:20N 26°06' W 080°07'0 0.0
2018-Jun-12 06:50N 26°06' W 080°07'0 0.0
2018-Jun-12 06:20N 26°06' W 080°07'0 0.0
2018-Jun-12 05:47N 26°06' W 080°07'0 0.0
2018-Jun-12 05:20N 26°06' W 080°07'0 0.0
2018-Jun-12 04:53N 26°06' W 080°07'0 0.0
2018-Jun-12 04:23N 26°06' W 080°07'0 0.0
2018-Jun-12 03:53N 26°06' W 080°07'0 0.0
2018-Jun-12 03:20N 26°06' W 080°07'0 0.0
2018-Jun-12 02:53N 26°06' W 080°07'0 0.0
2018-Jun-12 02:26N 26°06' W 080°07'0 0.0
2018-Jun-12 01:56N 26°06' W 080°07'0 0.0
2018-Jun-12 01:26N 26°06' W 080°07'0 0.0
2018-Jun-12 00:53N 26°06' W 080°07'0 0.0
2018-Jun-12 00:26N 26°06' W 080°07'0 0.0
2018-Jun-11 23:56N 26°06' W 080°07'0 0.0
2018-Jun-11 23:26N 26°06' W 080°07'0 0.0
2018-Jun-11 22:59N 26°06' W 080°07'0 0.0
2018-Jun-11 22:26N 26°06' W 080°07'0 0.0
2018-Jun-11 21:44N 26°06' W 080°07'0 0.0
2018-Jun-11 21:29N 26°06' W 080°07'0 0.0
2018-Jun-11 20:56N 26°06' W 080°07'0 0.0
2018-Jun-11 20:29N 26°06' W 080°07'0 0.0
2018-Jun-11 18:23N 26°06' W 080°07'0 0.0
2018-Jun-11 17:54N 26°06' W 080°07'0 0.0
2018-Jun-11 17:05N 26°06' W 080°07'0 0.0
2018-Jun-11 16:53N 26°06' W 080°07'0 0.0
2018-Jun-11 16:23N 26°06' W 080°07'0 0.0
2018-Jun-11 15:54N 26°06' W 080°07'0 0.0
2018-Jun-11 15:24N 26°06' W 080°07'0 0.0
2018-Jun-11 14:12N 26°06' W 080°07'0 0.0
2018-Jun-11 13:53N 26°06' W 080°07'0 0.0
2018-Jun-11 13:30N 26°06' W 080°07'0 0.0
2018-Jun-11 09:18N 26°06' W 080°07'0 0.0
2018-Jun-11 09:00N 26°06' W 080°07'0 0.0
2018-Jun-11 08:30N 26°06' W 080°07'0 0.0
2018-Jun-11 07:59N 26°06' W 080°07'0 0.0
2018-Jun-11 07:29N 26°06' W 080°07'0 0.0
2018-Jun-11 06:47N 26°06' W 080°07'0 0.0
2018-Jun-11 06:05N 26°06' W 080°07'0 0.0
2018-Jun-11 04:54N 26°06' W 080°07'0 0.0
2018-Jun-11 04:23N 26°06' W 080°07'0 0.0
2018-Jun-11 03:54N 26°06' W 080°07'0 0.0
2018-Jun-11 03:12N 26°06' W 080°07'0 0.0
2018-Jun-11 02:42N 26°06' W 080°07'0 0.0
2018-Jun-11 02:23N 26°06' W 080°07'0 0.0
2018-Jun-11 01:42N 26°06' W 080°07'0 0.0
2018-Jun-11 01:24N 26°06' W 080°07'0 0.0
2018-Jun-11 00:56N 26°06' W 080°07'0 0.0
2018-Jun-11 00:27N 26°06' W 080°07'0 0.0
2018-Jun-10 23:57N 26°06' W 080°07'0 0.0
2018-Jun-10 23:30N 26°06' W 080°07'0 0.0
2018-Jun-10 23:00N 26°06' W 080°07'0 0.0
2018-Jun-10 22:27N 26°06' W 080°07'0 0.0
2018-Jun-10 21:44N 26°06' W 080°07'0 0.0
2018-Jun-10 21:30N 26°06' W 080°07'0 0.0
2018-Jun-10 20:59N 26°06' W 080°07'0 0.0
2018-Jun-10 20:30N 26°06' W 080°07'0 0.0
2018-Jun-10 20:00N 26°06' W 080°07'0 0.0
2018-Jun-10 19:30N 26°06' W 080°07'0 0.0
2018-Jun-10 19:00N 26°06' W 080°07'0 0.0
2018-Jun-10 18:21N 26°06' W 080°07'0 0.0
2018-Jun-10 18:00N 26°06' W 080°07'0 0.0
2018-Jun-10 17:21N 26°06' W 080°07'0 0.0
2018-Jun-10 16:54N 26°06' W 080°07'0 0.0
2018-Jun-10 16:21N 26°06' W 080°07'0 0.0
2018-Jun-10 15:54N 26°06' W 080°07'0 0.0
2018-Jun-10 15:24N 26°06' W 080°07'0 0.0
2018-Jun-10 14:54N 26°06' W 080°07'0 0.0
2018-Jun-10 12:26N 26°06' W 080°07'0 0.0
2018-Jun-10 11:57N 26°06' W 080°07'0 0.0
2018-Jun-10 11:27N 26°06' W 080°07'0 0.0
2018-Jun-10 10:56N 26°06' W 080°07'0 0.0
2018-Jun-10 10:23N 26°06' W 080°07'0 0.0
2018-Jun-10 09:45N 26°06' W 080°07'0 0.0
2018-Jun-10 08:15N 26°06' W 080°07'0 0.0
2018-Jun-10 07:57N 26°06' W 080°07'0 0.0
2018-Jun-10 07:15N 26°06' W 080°07'0 0.0
2018-Jun-10 06:56N 26°06' W 080°07'0 0.0
2018-Jun-10 06:30N 26°06' W 080°07'0 0.0
2018-Jun-10 05:44N 26°06' W 080°07'0 0.0
2018-Jun-10 05:15N 26°06' W 080°07'0 0.0
2018-Jun-10 05:00N 26°06' W 080°07'0 0.0
2018-Jun-10 04:20N 26°06' W 080°07'0 0.0
2018-Jun-10 03:21N 26°06' W 080°07'0 0.0
2018-Jun-10 02:50N 26°06' W 080°07'0 0.0
2018-Jun-10 02:08N 26°06' W 080°07'0 0.0
2018-Jun-10 01:51N 26°06' W 080°07'0 0.0
2018-Jun-10 01:21N 26°06' W 080°07'0 0.0
2018-Jun-10 00:54N 26°06' W 080°07'0 0.0
2018-Jun-09 23:34N 26°06' W 080°07'0 3.2
2018-Jun-09 23:29N 26°06' W 080°07'3 5.6
2018-Jun-09 22:52N 26°10' W 080°06'2 4.3
2018-Jun-09 22:23N 26°12' W 080°06'3 3.3
2018-Jun-09 21:36N 26°14' W 080°06'0 0.4
2018-Jun-09 21:23N 26°14' W 080°06'0 0.1
2018-Jun-09 20:38N 26°14' W 080°06'0 2.7
2018-Jun-09 20:27N 26°14' W 080°06'2 4.0
2018-Jun-09 19:51N 26°11' W 080°06'1 3.2
2018-Jun-09 19:30N 26°10' W 080°06'2 3.6
2018-Jun-09 18:54N 26°08' W 080°07'  

Dump ship's entire track history